Check time and date!

LGTT 122300Z AUTO 04004KT //// // ////// 11/06 Q1008 RE//
TAF LGTT 120700Z 1209/1218 VRB05KT 9999 FEW030 BECMG 1209/1211 18010KT
--------------------------------------
LGMG 121500Z 15010KT CAVOK 22/09 Q1008 RMK FEW070 BKN180
TAF LGMG 120700Z 1209/1218 VRB05KT 9999 FEW030 BECMG 1210/1212 17010KT BECMG 1216/1218 29010KT
--------------------------------------
LGTG 122250Z 28007KT CAVOK 20/08 Q1007
--------------------------------------
LGEL 122320Z VRB03KT CAVOK 15/06 Q1006
TAF LGEL 122300Z 1300/1324 30010KT 9999 FEW020 BECMG 1307/1309 17010KT BECMG 1314/1316 31015G25KT
--------------------------------------
LGAV 122320Z 33002KT CAVOK 14/07 Q1007 RMK NOSIG
TAF LGAV 122300Z 1300/1324 27008KT 9999 FEW020 BECMG 1306/1308 18012KT BECMG 1318/1320 29012KT
--------------------------------------
LGAT 122300Z AUTO VRB01KT //// // ////// 17/12 Q1007 RE//
--------------------------------------
METAR LGAD 122320Z 00000KT 9999 SCT020 17/15 Q1010
METAR LGAV 122320Z 33002KT CAVOK 14/07 Q1007 NOSIG
METAR LGBL 122250Z 00000KT CAVOK 13/10 Q1007
METAR LGEL 122320Z VRB03KT CAVOK 15/06 Q1006
METAR LGIO 122320Z AUTO VRB02KT //// // ////// 13/12 Q1011 RE//
METAR LGIR 122320Z 17007KT CAVOK 15/09 Q1010 NOSIG
METAR LGKL 122320Z AUTO 31004KT //// // ////// 14/12 Q1010 RE//
METAR LGKO 122320Z 18005KT CAVOK 15/14 Q1009
METAR LGKP 122330Z AUTO 29006KT //// // ////// 16/01 Q1009 RE//
METAR LGKZ 122320Z AUTO 35004KT //// // ////// 12/02 Q1010 RE//
METAR LGLM 122250Z 00000KT CAVOK 12/04 Q1007
METAR LGLR 122250Z 00000KT 9999 FEW030 12/11 Q1007 RMK FEW080 BLU
METAR LGMT 122250Z VRB03KT CAVOK 16/09 Q1008
METAR LGPA 122320Z AUTO 19009KT //// // ////// 18/16 Q1008 RE//
METAR LGPZ 122250Z VRB03KT 9999 FEW020 18/16 Q1010
METAR LGRP 122320Z 20007KT CAVOK 18/14 Q1009 NOSIG
METAR LGRX 122250Z 00000KT 9999 FEW020 17/15 Q1010
METAR LGSA 122320Z 28010KT CAVOK 16/13 Q1009
METAR LGTG 122250Z 28007KT CAVOK 20/08 Q1007 BLU
METAR LGTS 122320Z 16003KT 9999 FEW025 15/11 Q1007 NOSIG

--------------------------------------
TAF LGAD 122300Z 1300/1309 30010KT 9999 FEW030 PROB30 TEMPO 1300/1305 5000 BR SCT008
TAF LGAL 122300Z 1300/1309 VRB05KT 9999 FEW020
TAF LGAV 122300Z 1300/1324 27008KT 9999 FEW020 BECMG 1306/1308 18012KT BECMG 1318/1320 29012KT
TAF LGBL 122300Z 1300/1309 28010KT 9999 FEW030
TAF LGEL 122300Z 1300/1324 30010KT 9999 FEW020 BECMG 1307/1309 17010KT BECMG 1314/1316 31015G25KT
TAF LGHI 122300Z 1300/1309 16012KT 9999 FEW025
TAF LGIO 122300Z 1300/1309 30005KT 9999 FEW010 BKN025 PROB30 TEMPO 1303/1306 3000 BR SCT006 BKN020
TAF LGIR 122300Z 1300/1324 19010KT 9999 FEW025 BECMG 1306/1308 33012KT TEMPO 1314/1318 33012G22KT BECMG 1320/1322 19010KT
TAF LGKC 122300Z 1300/1309 26015KT 9999 SCT012 SCT020 TEMPO 1300/1309 26012G22KT
TAF LGKF 122300Z 1300/1309 33010KT 9999 FEW014 PROB30 1300/1305 4000 BR SCT007
TAF LGKL 122300Z 1300/1309 33010KT 9999 FEW030
TAF LGKO 122300Z 1300/1324 20012KT 9999 FEW020
TAF LGKP 122300Z 1300/1309 27012KT 9999 FEW025
TAF LGKR 122300Z 1300/1324 31010KT 9999 FEW018 PROB30 1300/1305 4000 BR SCT007 BECMG 1311/1313 24012KT
TAF LGKV 122300Z 1300/1324 VRB03KT 9999 FEW030 SCT080 BECMG 1310/1312 22010KT PROB40 TEMPO 1314/1319 7000 SHRA FEW018TCU SCT030 BKN080 BECMG 1317/1319 VRB03KT
TAF LGLM 122300Z 1300/1309 23008KT 9999 FEW025
TAF LGLR 122300Z 1300/1309 27010KT 9999 FEW030
TAF LGMK 122300Z 1300/1309 19012KT 9999 FEW015 BECMG 1300/1302 25010KT
TAF LGMT 122300Z 1300/1309 16010KT 9999 FEW025
TAF LGPZ 122300Z 1300/1324 28010KT 9999 SCT020 TEMPO 1300/1306 VRB05KT SCT010 PROB30 1300/1305 4000 BR SCT007
TAF LGRP 122300Z 1300/1324 25010KT 9999 FEW020 TEMPO 1303/1307 VRB05KT
TAF LGRX 122300Z 1300/1309 27010KT 9999 FEW030 PROB30 TEMPO 1300/1305 5000 BR SCT008
TAF LGSA 122300Z 1300/1324 27015KT 9999 FEW025 TEMPO 1300/1310 28014G24KT TEMPO 1311/1324 28018G28KT
TAF LGSK 122300Z 1300/1309 VRB05KT 9999 FEW020 TEMPO 1300/1306 34010KT
TAF LGSM 122300Z 1300/1309 16012KT 9999 FEW025
TAF LGSR 122300Z 1300/1324 24015KT 9999 FEW020 TEMPO 1300/1303 24015G25KT TEMPO 1318/1324 24015G25KT
TAF LGST 122300Z 1300/1309 VRB05KT 9999 FEW025 TEMPO 1300/1309 28010KT
TAF LGSY 122300Z 1300/1309 27010KT 9999 FEW025
TAF LGTG 122300Z 1300/1309 27008KT 9999 FEW025
TAF LGTL 122300Z 1300/1309 19008KT 9999 FEW025
TAF LGTS 122300Z 1300/1324 34007KT 9999 FEW030 BECMG 1310/1312 17014KT SCT030 PROB40 TEMPO 1312/1318 7000 SHRA FEW018TCU SCT025 BECMG 1318/1320 VRB03KT FEW030
TAF LGZA 122300Z 1300/1309 VRB05KT 9999 FEW020 TEMPO 1300/1309 32010KT